Dades meteomassalio
Diari Summary for Setembre 24, 2017 Units:  Metric    English   Both
« Previous Day
Next Day »
Diari Semanal Mensual Anual Personalitzat
  Maxima: Minima: Mijana:
Temperatura: 28.9 °C 9.4 °C 17.7 °C
Rosada: 15.9 °C 4.8 °C 9.9 °C
Humitat: 92 % 31 % 65 %
Velocitat del vent: 18.5 km/h 0.0 km/h 2.5 km/h
Racha vent: 18.5 km/h - -
Vent:- - WNW
Pressio: 1022.9 hPa 1019.2 hPa -
Pluja: 0.0 mm    
Historical Graphs
 
 
Tabular Data for Setembre 24, 2017
Time Temperature Dew Point Pressure Wind Wind Speed Wind Gust Humidity Rainfall Rate (Hourly) solar Conditions
00:00 13.3 °C 10.7 °C 1021.9 hPa Calm     84 % 0.0 mm 0.0 W/m2 CLR
00:05 13.3 °C 10.7 °C 1021.9 hPa Calm     84 % 0.0 mm 0.0 W/m2 CLR
00:11 13.3 °C 10.7 °C 1021.9 hPa Calm     84 % 0.0 mm 0.0 W/m2 CLR
00:16 13.3 °C 10.7 °C 1021.9 hPa Calm     84 % 0.0 mm 0.0 W/m2 CLR
00:21 13.3 °C 10.7 °C 1021.9 hPa Calm     84 % 0.0 mm 0.0 W/m2 CLR
00:26 13.3 °C 10.7 °C 1021.9 hPa Calm     84 % 0.0 mm 0.0 W/m2 CLR
00:31 12.8 °C 10.2 °C 1021.9 hPa Calm     84 % 0.0 mm 0.0 W/m2 CLR
00:36 12.8 °C 10.3 °C 1021.9 hPa Calm     85 % 0.0 mm 0.0 W/m2 CLR
00:41 12.8 °C 10.5 °C 1021.9 hPa Calm     86 % 0.0 mm 0.0 W/m2 CLR
00:46 12.8 °C 10.5 °C 1021.9 hPa Calm     86 % 0.0 mm 0.0 W/m2 CLR
00:51 12.8 °C 10.5 °C 1021.9 hPa Calm     86 % 0.0 mm 0.0 W/m2 CLR
00:56 12.8 °C 10.5 °C 1021.9 hPa Calm     86 % 0.0 mm 0.0 W/m2 CLR
01:01 12.8 °C 10.2 °C 1021.9 hPa Calm     84 % 0.0 mm 0.0 W/m2 CLR
01:06 13.3 °C 10.9 °C 1021.9 hPa Calm     85 % 0.0 mm 0.0 W/m2 CLR
01:11 13.3 °C 10.9 °C 1021.9 hPa Calm     85 % 0.0 mm 0.0 W/m2 CLR
01:16 13.3 °C 10.9 °C 1021.9 hPa Calm     85 % 0.0 mm 0.0 W/m2 CLR
01:21 13.3 °C 10.9 °C 1021.9 hPa Calm     85 % 0.0 mm 0.0 W/m2 CLR
01:26 12.8 °C 10.3 °C 1021.9 hPa Calm     85 % 0.0 mm 0.0 W/m2 CLR
01:31 12.8 °C 10.3 °C 1021.9 hPa Calm     85 % 0.0 mm 0.0 W/m2 CLR
01:36 12.8 °C 10.3 °C 1022.2 hPa Calm     85 % 0.0 mm 0.0 W/m2 CLR
01:41 12.2 °C 9.9 °C 1022.2 hPa Calm     86 % 0.0 mm 0.0 W/m2 CLR
01:46 12.2 °C 9.9 °C 1022.2 hPa Calm     86 % 0.0 mm 0.0 W/m2 CLR
01:51 12.2 °C 9.9 °C 1022.2 hPa Calm     86 % 0.0 mm 0.0 W/m2 CLR
01:56 12.2 °C 10.1 °C 1022.2 hPa Calm     87 % 0.0 mm 0.0 W/m2 CLR
02:01 11.7 °C 9.6 °C 1022.2 hPa Calm     87 % 0.0 mm 0.0 W/m2 CLR
02:06 11.7 °C 9.6 °C 1022.2 hPa Calm     87 % 0.0 mm 0.0 W/m2 CLR
02:11 11.7 °C 9.6 °C 1022.2 hPa Calm     87 % 0.0 mm 0.0 W/m2 CLR
02:16 11.7 °C 9.6 °C 1022.2 hPa Calm     87 % 0.0 mm 0.0 W/m2 CLR
02:21 11.7 °C 9.7 °C 1022.2 hPa Calm     88 % 0.0 mm 0.0 W/m2 CLR
02:26 11.7 °C 9.7 °C 1022.2 hPa Calm     88 % 0.0 mm 0.0 W/m2 CLR
02:31 11.1 °C 9.2 °C 1022.2 hPa Calm     88 % 0.0 mm 0.0 W/m2 CLR
02:36 11.7 °C 9.7 °C 1022.2 hPa Calm     88 % 0.0 mm 0.0 W/m2 CLR
02:41 11.7 °C 9.7 °C 1022.2 hPa Calm     88 % 0.0 mm 0.0 W/m2 CLR
02:46 11.7 °C 9.7 °C 1022.2 hPa Calm     88 % 0.0 mm 0.0 W/m2 CLR
02:51 11.7 °C 9.9 °C 1022.2 hPa Calm     89 % 0.0 mm 0.0 W/m2 CLR
02:56 11.7 °C 9.9 °C 1022.2 hPa Calm     89 % 0.0 mm 0.0 W/m2 CLR
03:01 11.7 °C 9.9 °C 1022.2 hPa Calm     89 % 0.0 mm 0.0 W/m2 CLR
03:06 11.7 °C 9.9 °C 1022.2 hPa Calm     89 % 0.0 mm 0.0 W/m2 CLR
03:11 11.7 °C 9.9 °C 1021.9 hPa Calm     89 % 0.0 mm 0.0 W/m2 CLR
03:16 11.1 °C 9.4 °C 1021.9 hPa Calm     89 % 0.0 mm 0.0 W/m2 CLR
03:21 11.1 °C 9.4 °C 1021.9 hPa Calm     89 % 0.0 mm 0.0 W/m2 CLR
03:26 11.1 °C 9.4 °C 1021.9 hPa Calm     89 % 0.0 mm 0.0 W/m2 CLR
03:31 11.1 °C 9.4 °C 1021.9 hPa Calm     89 % 0.0 mm 0.0 W/m2 CLR
03:36 11.1 °C 9.4 °C 1021.9 hPa Calm     89 % 0.0 mm 0.0 W/m2 CLR
03:41 10.6 °C 8.8 °C 1021.9 hPa Calm     89 % 0.0 mm 0.0 W/m2 CLR
03:46 10.6 °C 9.0 °C 1021.9 hPa Calm     90 % 0.0 mm 0.0 W/m2 CLR
03:51 10.6 °C 9.0 °C 1021.9 hPa Calm     90 % 0.0 mm 0.0 W/m2 CLR
03:56 10.6 °C 8.8 °C 1021.9 hPa Calm     89 % 0.0 mm 0.0 W/m2 CLR
04:01 10.6 °C 9.0 °C 1021.9 hPa Calm     90 % 0.0 mm 0.0 W/m2 CLR
04:06 10.6 °C 9.0 °C 1021.9 hPa Calm     90 % 0.0 mm 0.0 W/m2 CLR
04:11 10.6 °C 9.0 °C 1021.9 hPa SE 7.4 km/h 7.4 km/h 90 % 0.0 mm 0.0 W/m2 CLR
04:16 10.0 °C 8.4 °C 1021.9 hPa Calm     90 % 0.0 mm 0.0 W/m2 CLR
04:21 10.0 °C 8.4 °C 1021.6 hPa Calm     90 % 0.0 mm 0.0 W/m2 CLR
04:26 10.0 °C 8.4 °C 1021.6 hPa Calm     90 % 0.0 mm 0.0 W/m2 CLR
04:32 10.0 °C 8.4 °C 1021.9 hPa Calm     90 % 0.0 mm 0.0 W/m2 CLR
04:37 10.0 °C 8.4 °C 1021.9 hPa Calm     90 % 0.0 mm 0.0 W/m2 CLR
04:42 10.0 °C 8.4 °C 1021.9 hPa Calm     90 % 0.0 mm 0.0 W/m2 CLR
04:47 10.0 °C 8.4 °C 1021.9 hPa Calm     90 % 0.0 mm 0.0 W/m2 CLR
04:52 10.0 °C 8.4 °C 1021.9 hPa Calm     90 % 0.0 mm 0.0 W/m2 CLR
04:57 10.0 °C 8.4 °C 1021.9 hPa Calm     90 % 0.0 mm 0.0 W/m2 CLR
05:02 10.0 °C 8.4 °C 1021.6 hPa Calm     90 % 0.0 mm 0.0 W/m2 CLR
05:07 10.0 °C 8.4 °C 1021.9 hPa Calm     90 % 0.0 mm 0.0 W/m2 CLR
05:12 10.0 °C 8.6 °C 1021.6 hPa Calm     91 % 0.0 mm 0.0 W/m2 CLR
05:17 10.0 °C 8.6 °C 1021.9 hPa Calm     91 % 0.0 mm 0.0 W/m2 CLR
05:21 10.0 °C 8.4 °C 1021.9 hPa Calm     90 % 0.0 mm 0.0 W/m2 CLR
05:23 10.0 °C 8.4 °C 1021.9 hPa Calm     90 % 0.0 mm 0.0 W/m2 CLR
05:24 10.0 °C 8.4 °C 1021.9 hPa Calm     90 % 0.0 mm 0.0 W/m2 CLR
05:26 10.0 °C 8.4 °C 1021.9 hPa Calm     90 % 0.0 mm 0.0 W/m2 CLR
05:36 10.0 °C 8.6 °C 1021.9 hPa Calm     91 % 0.0 mm 0.0 W/m2 CLR
05:41 10.0 °C 8.6 °C 1021.9 hPa Calm     91 % 0.0 mm 0.0 W/m2 CLR
05:46 9.4 °C 8.1 °C 1021.9 hPa Calm     91 % 0.0 mm 0.0 W/m2 CLR
05:51 9.4 °C 8.1 °C 1021.9 hPa Calm     91 % 0.0 mm 0.0 W/m2 CLR
05:56 9.4 °C 8.1 °C 1021.9 hPa Calm     91 % 0.0 mm 0.0 W/m2 CLR
06:01 9.4 °C 8.1 °C 1021.9 hPa Calm     91 % 0.0 mm 0.0 W/m2 CLR
06:06 9.4 °C 8.1 °C 1021.9 hPa Calm     91 % 0.0 mm 0.0 W/m2 CLR
06:11 9.4 °C 8.1 °C 1021.9 hPa Calm     91 % 0.0 mm 0.0 W/m2 CLR
06:16 9.4 °C 8.1 °C 1021.9 hPa Calm     91 % 0.0 mm 0.0 W/m2 CLR
06:21 9.4 °C 8.1 °C 1021.9 hPa Calm     91 % 0.0 mm 0.0 W/m2 CLR
06:26 9.4 °C 8.1 °C 1021.9 hPa Calm     91 % 0.0 mm 0.0 W/m2 CLR
06:31 9.4 °C 8.1 °C 1021.9 hPa Calm     91 % 0.0 mm 0.0 W/m2 CLR
06:36 9.4 °C 8.1 °C 1021.9 hPa Calm     91 % 0.0 mm 0.0 W/m2 CLR
06:41 9.4 °C 8.1 °C 1021.9 hPa Calm     91 % 0.0 mm 0.0 W/m2 CLR
06:46 9.4 °C 8.1 °C 1021.9 hPa Calm     91 % 0.0 mm 0.0 W/m2 CLR
06:51 9.4 °C 8.1 °C 1021.9 hPa Calm     91 % 0.0 mm 0.0 W/m2 CLR
06:56 9.4 °C 8.1 °C 1021.9 hPa Calm     91 % 0.0 mm 0.0 W/m2 CLR
07:01 9.4 °C 8.2 °C 1021.9 hPa Calm     92 % 0.0 mm 0.0 W/m2 CLR
07:06 9.4 °C 8.2 °C 1021.9 hPa Calm     92 % 0.0 mm 0.0 W/m2 CLR
07:11 9.4 °C 8.1 °C 1021.9 hPa Calm     91 % 0.0 mm 0.0 W/m2 CLR
07:16 9.4 °C 8.2 °C 1021.9 hPa Calm     92 % 0.0 mm 0.0 W/m2 CLR
07:21 9.4 °C 8.2 °C 1022.2 hPa South 3.7 km/h 3.7 km/h 92 % 0.0 mm 0.0 W/m2 CLR
07:26 9.4 °C 8.2 °C 1022.2 hPa South 7.4 km/h 7.4 km/h 92 % 0.0 mm 0.0 W/m2 CLR
07:31 10.0 °C 8.8 °C 1022.2 hPa Calm     92 % 0.0 mm 0.0 W/m2 CLR
07:36 10.0 °C 8.8 °C 1022.2 hPa SE 5.6 km/h   92 % 0.0 mm 0.0 W/m2 CLR
07:41 10.0 °C 8.6 °C 1022.2 hPa Calm     91 % 0.0 mm 0.0 W/m2 OVC
07:47 10.0 °C 8.8 °C 1022.6 hPa Calm     92 % 0.0 mm 0.0 W/m2 OVC
07:51 10.0 °C 8.8 °C 1022.6 hPa Calm     92 % 0.0 mm 7.0 W/m2 OVC
07:56 10.0 °C 8.8 °C 1022.6 hPa Calm     92 % 0.0 mm 11.0 W/m2 BKN
08:01 9.4 °C 8.2 °C 1022.6 hPa Calm     92 % 0.0 mm 16.0 W/m2 BKN
08:06 9.4 °C 8.2 °C 1022.6 hPa Calm     92 % 0.0 mm 21.0 W/m2 BKN
08:12 9.4 °C 8.2 °C 1022.6 hPa Calm     92 % 0.0 mm 28.0 W/m2 BKN
08:17 10.0 °C 8.8 °C 1022.6 hPa Calm     92 % 0.0 mm 33.0 W/m2 BKN
08:22 10.0 °C 8.8 °C 1022.6 hPa Calm     92 % 0.0 mm 42.0 W/m2 BKN
08:27 10.0 °C 8.8 °C 1022.6 hPa Calm     92 % 0.0 mm 60.0 W/m2 SCT
08:32 10.0 °C 8.8 °C 1022.6 hPa Calm     92 % 0.0 mm 65.0 W/m2 SCT
08:37 10.0 °C 8.8 °C 1022.6 hPa Calm     92 % 0.0 mm 74.0 W/m2 FEW
08:42 10.6 °C 9.3 °C 1022.6 hPa Calm     92 % 0.0 mm 63.0 W/m2 SCT
08:47 10.6 °C 9.2 °C 1022.6 hPa Calm     91 % 0.0 mm 54.0 W/m2 SCT
08:52 11.1 °C 9.7 °C 1022.6 hPa Calm     91 % 0.0 mm 86.0 W/m2 SCT
08:57 11.1 °C 9.7 °C 1022.6 hPa Calm     91 % 0.0 mm 74.0 W/m2 FEW
09:02 11.1 °C 9.7 °C 1022.6 hPa Calm     91 % 0.0 mm 121.0 W/m2 CLR
09:07 11.1 °C 9.8 °C 1022.9 hPa Calm     92 % 0.0 mm 160.0 W/m2 CLR
09:12 11.7 °C 10.2 °C 1022.6 hPa Calm     91 % 0.0 mm 120.0 W/m2 CLR
09:17 11.7 °C 10.1 °C 1022.6 hPa Calm     90 % 0.0 mm 221.0 W/m2 CLR
09:22 12.2 °C 10.4 °C 1022.6 hPa Calm     89 % 0.0 mm 193.0 W/m2 CLR
09:27 12.2 °C 10.4 °C 1022.6 hPa Calm     89 % 0.0 mm 281.0 W/m2 CLR
09:32 12.8 °C 10.8 °C 1022.6 hPa Calm     88 % 0.0 mm 211.0 W/m2 CLR
09:37 12.8 °C 10.7 °C 1022.9 hPa Calm     87 % 0.0 mm 190.0 W/m2 CLR
09:42 13.3 °C 11.1 °C 1022.9 hPa Calm     86 % 0.0 mm 265.0 W/m2 CLR
09:47 13.3 °C 10.7 °C 1022.9 hPa Calm     84 % 0.0 mm 216.0 W/m2 CLR
09:57 13.9 °C 10.9 °C 1022.9 hPa Calm     82 % 0.0 mm 281.0 W/m2 CLR
10:02 13.9 °C 10.9 °C 1022.9 hPa Calm     82 % 0.0 mm 343.0 W/m2 CLR
10:07 15.0 °C 11.8 °C 1022.9 hPa Calm     81 % 0.0 mm 295.0 W/m2 CLR
10:12 15.6 °C 12.1 °C 1022.9 hPa Calm     80 % 0.0 mm 380.0 W/m2 CLR
10:17 16.1 °C 12.4 °C 1022.9 hPa Calm     79 % 0.0 mm 374.0 W/m2 CLR
10:22 16.1 °C 12.1 °C 1022.6 hPa Calm     77 % 0.0 mm 339.0 W/m2 CLR
10:27 17.2 °C 13.2 °C 1022.6 hPa Calm     77 % 0.0 mm 457.0 W/m2 CLR
10:32 18.3 °C 13.8 °C 1022.6 hPa Calm     75 % 0.0 mm 469.0 W/m2 CLR
10:37 18.9 °C 14.2 °C 1022.6 hPa Calm     74 % 0.0 mm 457.0 W/m2 CLR
10:42 18.9 °C 13.7 °C 1022.6 hPa Calm     72 % 0.0 mm 482.0 W/m2 CLR
10:47 19.4 °C 14.1 °C 1022.6 hPa Calm     71 % 0.0 mm 410.0 W/m2 CLR
10:52 19.4 °C 14.1 °C 1022.6 hPa Calm     71 % 0.0 mm 374.0 W/m2 CLR
10:57 19.4 °C 13.6 °C 1022.6 hPa Calm     69 % 0.0 mm 392.0 W/m2 CLR
11:02 20.0 °C 14.1 °C 1022.6 hPa Calm     69 % 0.0 mm 510.0 W/m2 CLR
11:07 20.0 °C 13.7 °C 1022.6 hPa Calm     67 % 0.0 mm 483.0 W/m2 CLR
11:12 20.0 °C 13.2 °C 1022.6 hPa Calm     65 % 0.0 mm 531.0 W/m2 CLR
11:17 20.6 °C 13.3 °C 1022.6 hPa North 5.6 km/h 5.6 km/h 63 % 0.0 mm 538.0 W/m2 CLR
11:22 20.6 °C 13.5 °C 1022.6 hPa NNW 5.6 km/h 5.6 km/h 64 % 0.0 mm 557.0 W/m2 CLR
11:27 21.1 °C 14.1 °C 1022.6 hPa North 3.2 km/h 3.2 km/h 64 % 0.0 mm 566.0 W/m2 CLR
11:32 21.1 °C 14.1 °C 1022.6 hPa North 5.6 km/h 5.6 km/h 64 % 0.0 mm 577.0 W/m2 CLR
11:37 21.7 °C 14.6 °C 1022.6 hPa NNW 5.6 km/h 5.6 km/h 64 % 0.0 mm 589.0 W/m2 CLR
11:38 21.7 °C 14.6 °C 1022.6 hPa North 5.6 km/h 5.6 km/h 64 % 0.0 mm 591.0 W/m2 CLR
11:43 21.7 °C 14.3 °C 1022.6 hPa NNW 8.0 km/h 8.0 km/h 63 % 0.0 mm 601.0 W/m2 CLR
11:48 22.2 °C 15.1 °C 1022.6 hPa North 1.9 km/h 1.9 km/h 64 % 0.0 mm 608.0 W/m2 CLR
11:53 22.2 °C 14.8 °C 1022.6 hPa NNW 13.0 km/h 13.0 km/h 63 % 0.0 mm 617.0 W/m2 CLR
11:58 22.2 °C 14.8 °C 1022.6 hPa NNW 9.3 km/h 9.3 km/h 63 % 0.0 mm 628.0 W/m2 CLR
12:03 22.8 °C 15.1 °C 1022.6 hPa North 7.4 km/h 7.4 km/h 62 % 0.0 mm 636.0 W/m2 CLR
12:08 23.3 °C 15.7 °C 1022.6 hPa NNW 7.4 km/h 7.4 km/h 62 % 0.0 mm 585.0 W/m2 CLR
12:13 22.8 °C 14.9 °C 1022.2 hPa NNW 6.4 km/h 6.4 km/h 61 % 0.0 mm 652.0 W/m2 CLR
12:18 23.3 °C 15.4 °C 1022.2 hPa NNE 3.7 km/h   61 % 0.0 mm 657.0 W/m2 CLR
12:23 23.3 °C 15.4 °C 1022.2 hPa NNW 3.7 km/h 3.7 km/h 61 % 0.0 mm 666.0 W/m2 CLR
12:28 23.9 °C 15.9 °C 1022.2 hPa NNW 3.7 km/h 3.7 km/h 61 % 0.0 mm 673.0 W/m2 CLR
12:33 23.9 °C 15.4 °C 1021.9 hPa NW 3.7 km/h 3.7 km/h 59 % 0.0 mm 679.0 W/m2 CLR
12:38 23.9 °C 15.1 °C 1021.9 hPa NNW 16.7 km/h 16.7 km/h 58 % 0.0 mm 684.0 W/m2 CLR
12:43 23.9 °C 14.8 °C 1021.9 hPa North 14.8 km/h 14.8 km/h 57 % 0.0 mm 691.0 W/m2 CLR
12:48 24.4 °C 15.4 °C 1021.9 hPa NNW 16.7 km/h 16.7 km/h 57 % 0.0 mm 698.0 W/m2 CLR
12:53 24.4 °C 15.4 °C 1021.9 hPa North 13.0 km/h 13.0 km/h 57 % 0.0 mm 701.0 W/m2 CLR
12:58 25.0 °C 15.1 °C 1021.9 hPa NW 7.4 km/h 7.4 km/h 54 % 0.0 mm 705.0 W/m2 CLR
13:04 25.6 °C 14.7 °C 1021.9 hPa NE 9.3 km/h 9.3 km/h 51 % 0.0 mm 708.0 W/m2 CLR
13:09 26.1 °C 15.5 °C 1021.9 hPa WSW 7.4 km/h 7.4 km/h 52 % 0.0 mm 714.0 W/m2 CLR
13:14 25.6 °C 13.7 °C 1021.9 hPa SW 3.7 km/h   48 % 0.0 mm 719.0 W/m2 CLR
13:19 26.1 °C 13.6 °C 1021.9 hPa West 16.7 km/h 16.7 km/h 46 % 0.0 mm 721.0 W/m2 CLR
13:24 25.6 °C 13.1 °C 1021.9 hPa WSW 18.5 km/h 18.5 km/h 46 % 0.0 mm 722.0 W/m2 CLR
13:29 25.6 °C 12.4 °C 1021.9 hPa NW 14.5 km/h 14.5 km/h 44 % 0.0 mm 724.0 W/m2 CLR
13:34 26.1 °C 12.6 °C 1021.9 hPa WNW 14.8 km/h 14.8 km/h 43 % 0.0 mm 726.0 W/m2 CLR
13:39 26.1 °C 12.9 °C 1021.9 hPa WNW 16.7 km/h 16.7 km/h 44 % 0.0 mm 729.0 W/m2 CLR
13:44 26.1 °C 12.9 °C 1021.6 hPa WSW 14.8 km/h 14.8 km/h 44 % 0.0 mm 729.0 W/m2 CLR
13:49 26.1 °C 12.9 °C 1021.6 hPa WNW 16.7 km/h 16.7 km/h 44 % 0.0 mm 731.0 W/m2 CLR
13:54 26.1 °C 12.6 °C 1021.6 hPa NW 17.7 km/h 17.7 km/h 43 % 0.0 mm 729.0 W/m2 CLR
13:59 26.7 °C 13.1 °C 1021.6 hPa NNW 18.5 km/h 18.5 km/h 43 % 0.0 mm 731.0 W/m2 CLR
14:04 26.7 °C 12.7 °C 1021.6 hPa NW 14.8 km/h 14.8 km/h 42 % 0.0 mm 731.0 W/m2 CLR
14:09 26.1 °C 12.2 °C 1021.2 hPa WNW 13.0 km/h 13.0 km/h 42 % 0.0 mm 729.0 W/m2 CLR
14:14 26.1 °C 12.6 °C 1021.2 hPa NW 5.6 km/h 5.6 km/h 43 % 0.0 mm 729.0 W/m2 CLR
14:19 26.1 °C 11.8 °C 1021.2 hPa West 5.6 km/h 5.6 km/h 41 % 0.0 mm 728.0 W/m2 CLR
14:24 26.1 °C 11.4 °C 1021.2 hPa NW 14.8 km/h 14.8 km/h 40 % 0.0 mm 722.0 W/m2 CLR
14:29 26.7 °C 11.9 °C 1021.2 hPa WNW 11.3 km/h 11.3 km/h 40 % 0.0 mm 722.0 W/m2 CLR
14:34 26.7 °C 11.2 °C 1021.2 hPa NNW 9.3 km/h 9.3 km/h 38 % 0.0 mm 719.0 W/m2 CLR
14:39 27.2 °C 11.3 °C 1021.2 hPa West 7.4 km/h 7.4 km/h 37 % 0.0 mm 714.0 W/m2 CLR
14:44 27.2 °C 10.8 °C 1020.9 hPa West 11.1 km/h 11.1 km/h 36 % 0.0 mm 710.0 W/m2 CLR
14:49 27.2 °C 11.3 °C 1020.9 hPa WNW 7.4 km/h 7.4 km/h 37 % 0.0 mm 705.0 W/m2 CLR
14:54 27.2 °C 11.7 °C 1020.9 hPa Calm     38 % 0.0 mm 700.0 W/m2 CLR
14:59 27.8 °C 11.3 °C 1020.9 hPa West 11.1 km/h 11.1 km/h 36 % 0.0 mm 700.0 W/m2 CLR
15:04 27.2 °C 10.8 °C 1020.9 hPa WSW 1.9 km/h   36 % 0.0 mm 693.0 W/m2 CLR
15:09 27.2 °C 11.3 °C 1020.5 hPa NW 7.4 km/h 7.4 km/h 37 % 0.0 mm 686.0 W/m2 CLR
15:14 27.2 °C 10.8 °C 1020.5 hPa Calm     36 % 0.0 mm 682.0 W/m2 CLR
15:19 27.2 °C 11.3 °C 1020.5 hPa Calm     37 % 0.0 mm 671.0 W/m2 CLR
15:24 27.2 °C 11.7 °C 1020.5 hPa Calm     38 % 0.0 mm 668.0 W/m2 CLR
15:29 27.2 °C 10.8 °C 1020.5 hPa West 9.7 km/h 9.7 km/h 36 % 0.0 mm 661.0 W/m2 CLR
15:34 27.8 °C 11.3 °C 1020.5 hPa WSW 5.6 km/h 5.6 km/h 36 % 0.0 mm 654.0 W/m2 CLR
15:36 27.8 °C 11.3 °C 1020.5 hPa NW 11.1 km/h 11.1 km/h 36 % 0.0 mm 650.0 W/m2 CLR
15:41 27.8 °C 11.3 °C 1020.5 hPa Calm   1.0 km/h 36 % 0.0 mm 636.0 W/m2 CLR
15:46 27.8 °C 11.3 °C 1020.2 hPa Calm     36 % 0.0 mm 633.0 W/m2 CLR
15:51 28.3 °C 11.8 °C 1020.2 hPa Calm     36 % 0.0 mm 624.0 W/m2 CLR
15:56 27.8 °C 10.9 °C 1020.2 hPa North 1.9 km/h 1.9 km/h 35 % 0.0 mm 608.0 W/m2 CLR
16:01 27.8 °C 10.9 °C 1020.2 hPa WNW 16.7 km/h 16.7 km/h 35 % 0.0 mm 601.0 W/m2 CLR
16:06 27.8 °C 10.9 °C 1020.2 hPa Calm     35 % 0.0 mm 598.0 W/m2 CLR
16:11 27.8 °C 10.5 °C 1020.2 hPa WNW 5.6 km/h   34 % 0.0 mm 578.0 W/m2 CLR
16:16 27.8 °C 10.1 °C 1019.9 hPa WSW 9.3 km/h 9.3 km/h 33 % 0.0 mm 568.0 W/m2 CLR
16:21 28.3 °C 10.9 °C 1019.9 hPa WNW 3.7 km/h 3.7 km/h 34 % 0.0 mm 555.0 W/m2 CLR
16:26 28.3 °C 10.5 °C 1019.9 hPa NW 4.8 km/h 4.8 km/h 33 % 0.0 mm 555.0 W/m2 CLR
16:31 28.3 °C 10.5 °C 1019.9 hPa North 13.0 km/h 13.0 km/h 33 % 0.0 mm 536.0 W/m2 CLR
16:36 28.3 °C 10.9 °C 1019.9 hPa WNW 11.1 km/h 11.1 km/h 34 % 0.0 mm 527.0 W/m2 CLR
16:41 28.3 °C 10.5 °C 1019.9 hPa NNW 8.0 km/h 8.0 km/h 33 % 0.0 mm 510.0 W/m2 CLR
16:46 28.3 °C 10.5 °C 1019.5 hPa Calm     33 % 0.0 mm 497.0 W/m2 CLR
16:51 28.9 °C 11.0 °C 1019.5 hPa North 3.7 km/h 3.7 km/h 33 % 0.0 mm 482.0 W/m2 CLR
16:56 28.3 °C 10.5 °C 1019.5 hPa North 5.6 km/h 5.6 km/h 33 % 0.0 mm 466.0 W/m2 CLR
17:06 28.3 °C 10.5 °C 1019.5 hPa NNW 5.6 km/h 5.6 km/h 33 % 0.0 mm 445.0 W/m2 CLR
17:11 28.3 °C 10.5 °C 1019.5 hPa NNW 11.1 km/h 11.1 km/h 33 % 0.0 mm 432.0 W/m2 CLR
17:16 28.9 °C 11.0 °C 1019.2 hPa Calm     33 % 0.0 mm 420.0 W/m2 CLR
17:21 28.3 °C 9.6 °C 1019.2 hPa NNW 13.0 km/h 13.0 km/h 31 % 0.0 mm 399.0 W/m2 CLR
17:26 28.3 °C 10.1 °C 1019.2 hPa Calm     32 % 0.0 mm 387.0 W/m2 CLR
17:31 28.3 °C 10.5 °C 1019.2 hPa Calm     33 % 0.0 mm 360.0 W/m2 CLR
17:36 28.3 °C 9.6 °C 1019.2 hPa Calm     31 % 0.0 mm 352.0 W/m2 CLR
17:41 28.3 °C 9.6 °C 1019.2 hPa NNW 9.3 km/h 9.3 km/h 31 % 0.0 mm 341.0 W/m2 CLR
17:46 28.3 °C 10.1 °C 1019.2 hPa NW 9.3 km/h 9.3 km/h 32 % 0.0 mm 341.0 W/m2 CLR
17:51 28.3 °C 10.5 °C 1019.2 hPa North 5.6 km/h   33 % 0.0 mm 336.0 W/m2 CLR
17:56 28.3 °C 10.5 °C 1019.2 hPa North 5.6 km/h 5.6 km/h 33 % 0.0 mm 301.0 W/m2 CLR
18:01 28.3 °C 10.9 °C 1019.2 hPa NNW 7.4 km/h 7.4 km/h 34 % 0.0 mm 302.0 W/m2 CLR
18:07 27.8 °C 10.5 °C 1019.2 hPa NW 9.3 km/h 9.3 km/h 34 % 0.0 mm 283.0 W/m2 CLR
18:12 27.8 °C 10.5 °C 1019.2 hPa NNW 5.6 km/h   34 % 0.0 mm 264.0 W/m2 CLR
18:17 27.8 °C 10.5 °C 1019.2 hPa NNW 5.6 km/h 5.6 km/h 34 % 0.0 mm 248.0 W/m2 CLR
18:22 27.8 °C 10.1 °C 1019.2 hPa NNW 9.3 km/h 9.3 km/h 33 % 0.0 mm 227.0 W/m2 CLR
18:27 27.2 °C 9.6 °C 1019.2 hPa NW 7.4 km/h 7.4 km/h 33 % 0.0 mm 200.0 W/m2 CLR
18:32 27.2 °C 9.6 °C 1019.2 hPa NNW 5.6 km/h 5.6 km/h 33 % 0.0 mm 178.0 W/m2 CLR
18:37 27.2 °C 10.0 °C 1019.2 hPa NW 5.6 km/h 5.6 km/h 34 % 0.0 mm 155.0 W/m2 CLR
18:42 26.7 °C 9.5 °C 1019.2 hPa NNW 5.6 km/h 5.6 km/h 34 % 0.0 mm 146.0 W/m2 CLR
18:47 26.1 °C 9.0 °C 1019.2 hPa Calm     34 % 0.0 mm 102.0 W/m2 CLR
18:52 25.6 °C 8.6 °C 1019.2 hPa Calm     34 % 0.0 mm 93.0 W/m2 CLR
18:57 25.0 °C 8.1 °C 1019.2 hPa Calm     34 % 0.0 mm 81.0 W/m2 CLR
18:58 25.0 °C 8.1 °C 1019.2 hPa Calm     34 % 0.0 mm 93.0 W/m2 CLR
19:03 24.4 °C 7.6 °C 1019.2 hPa Calm     34 % 0.0 mm 76.0 W/m2 FEW
19:08 23.9 °C 7.1 °C 1019.2 hPa Calm     34 % 0.0 mm 60.0 W/m2 SCT
19:13 23.3 °C 7.0 °C 1019.2 hPa Calm     35 % 0.0 mm 53.0 W/m2 SCT
19:18 22.8 °C 6.5 °C 1019.2 hPa Calm     35 % 0.0 mm 44.0 W/m2 BKN
19:23 22.2 °C 6.0 °C 1019.2 hPa Calm     35 % 0.0 mm 35.0 W/m2 BKN
19:28 22.2 °C 6.4 °C 1019.2 hPa Calm     36 % 0.0 mm 28.0 W/m2 BKN
19:33 21.7 °C 6.3 °C 1019.2 hPa Calm     37 % 0.0 mm 21.0 W/m2 BKN
19:38 21.1 °C 5.8 °C 1019.2 hPa Calm     37 % 0.0 mm 16.0 W/m2 BKN
19:43 21.1 °C 5.8 °C 1019.2 hPa Calm     37 % 0.0 mm 14.0 W/m2 BKN
19:48 20.6 °C 5.3 °C 1019.2 hPa Calm     37 % 0.0 mm 9.0 W/m2 BKN
19:53 20.0 °C 4.8 °C 1019.2 hPa Calm     37 % 0.0 mm 0.0 W/m2 OVC
19:58 20.0 °C 5.6 °C 1019.2 hPa Calm     39 % 0.0 mm 0.0 W/m2 OVC
20:03 19.4 °C 5.1 °C 1019.2 hPa Calm     39 % 0.0 mm 0.0 W/m2 CLR
20:08 19.4 °C 5.8 °C 1019.2 hPa Calm     41 % 0.0 mm 0.0 W/m2 CLR
20:13 18.9 °C 6.1 °C 1019.2 hPa Calm     43 % 0.0 mm 0.0 W/m2 CLR
20:18 18.9 °C 6.4 °C 1019.2 hPa Calm     44 % 0.0 mm 0.0 W/m2 CLR
20:23 18.3 °C 6.2 °C 1019.2 hPa Calm     45 % 0.0 mm 0.0 W/m2 CLR
20:28 18.3 °C 6.8 °C 1019.2 hPa Calm     47 % 0.0 mm 0.0 W/m2 CLR
20:33 18.3 °C 7.1 °C 1019.2 hPa Calm     48 % 0.0 mm 0.0 W/m2 CLR
20:38 17.8 °C 6.6 °C 1019.5 hPa Calm     48 % 0.0 mm 0.0 W/m2 CLR
20:43 17.8 °C 6.9 °C 1019.5 hPa Calm     49 % 0.0 mm 0.0 W/m2 CLR
20:48 17.2 °C 6.7 °C 1019.5 hPa Calm     50 % 0.0 mm 0.0 W/m2 CLR
20:53 17.2 °C 6.7 °C 1019.5 hPa Calm     50 % 0.0 mm 0.0 W/m2 CLR
20:58 17.2 °C 7.0 °C 1019.5 hPa Calm     51 % 0.0 mm 0.0 W/m2 CLR
21:03 16.7 °C 6.8 °C 1019.5 hPa Calm     52 % 0.0 mm 0.0 W/m2 CLR
21:08 16.7 °C 7.1 °C 1019.9 hPa Calm     53 % 0.0 mm 0.0 W/m2 CLR
21:13 16.7 °C 7.1 °C 1019.5 hPa Calm     53 % 0.0 mm 0.0 W/m2 CLR
21:18 16.1 °C 6.8 °C 1019.5 hPa Calm     54 % 0.0 mm 0.0 W/m2 CLR
21:23 16.1 °C 6.8 °C 1019.5 hPa Calm     54 % 0.0 mm 0.0 W/m2 CLR
21:28 16.1 °C 7.1 °C 1019.9 hPa Calm     55 % 0.0 mm 0.0 W/m2 CLR
21:33 16.1 °C 7.1 °C 1019.9 hPa Calm     55 % 0.0 mm 0.0 W/m2 CLR
21:38 15.6 °C 6.6 °C 1019.9 hPa Calm     55 % 0.0 mm 0.0 W/m2 CLR
21:43 15.6 °C 6.8 °C 1019.9 hPa Calm     56 % 0.0 mm 0.0 W/m2 CLR
21:48 15.6 °C 6.8 °C 1019.9 hPa Calm     56 % 0.0 mm 0.0 W/m2 CLR
21:53 15.6 °C 6.8 °C 1019.9 hPa Calm     56 % 0.0 mm 0.0 W/m2 CLR
21:58 16.1 °C 7.6 °C 1019.9 hPa Calm     57 % 0.0 mm 0.0 W/m2 CLR
22:03 16.1 °C 7.6 °C 1019.9 hPa Calm     57 % 0.0 mm 0.0 W/m2 CLR
22:08 16.1 °C 7.8 °C 1019.9 hPa Calm     58 % 0.0 mm 0.0 W/m2 CLR
22:14 16.1 °C 7.8 °C 1019.9 hPa Calm     58 % 0.0 mm 0.0 W/m2 CLR
22:19 16.1 °C 8.3 °C 1019.9 hPa Calm     60 % 0.0 mm 0.0 W/m2 CLR
22:24 15.6 °C 7.6 °C 1019.9 hPa Calm     59 % 0.0 mm 0.0 W/m2 CLR
22:29 15.6 °C 7.3 °C 1020.2 hPa Calm     58 % 0.0 mm 0.0 W/m2 CLR
22:34 15.0 °C 6.6 °C 1020.2 hPa Calm     57 % 0.0 mm 0.0 W/m2 CLR
22:39 15.0 °C 6.8 °C 1019.9 hPa Calm     58 % 0.0 mm 0.0 W/m2 CLR
22:44 15.0 °C 7.1 °C 1019.9 hPa Calm     59 % 0.0 mm 0.0 W/m2 CLR
22:49 15.0 °C 7.3 °C 1020.2 hPa Calm     60 % 0.0 mm 0.0 W/m2 CLR
22:54 15.0 °C 7.6 °C 1019.9 hPa Calm     61 % 0.0 mm 0.0 W/m2 CLR
22:59 15.0 °C 7.6 °C 1019.9 hPa Calm     61 % 0.0 mm 0.0 W/m2 CLR
23:04 15.0 °C 7.8 °C 1019.9 hPa Calm     62 % 0.0 mm 0.0 W/m2 CLR
23:09 15.6 °C 8.3 °C 1019.9 hPa Calm     62 % 0.0 mm 0.0 W/m2 CLR
23:19 16.1 °C 9.1 °C 1019.9 hPa Calm     63 % 0.0 mm 0.0 W/m2 CLR
23:24 16.1 °C 9.3 °C 1019.9 hPa Calm     64 % 0.0 mm 0.0 W/m2 CLR
23:29 16.1 °C 9.3 °C 1019.9 hPa Calm     64 % 0.0 mm 0.0 W/m2 CLR
23:34 16.1 °C 9.3 °C 1019.9 hPa Calm     64 % 0.0 mm 0.0 W/m2 CLR
23:39 16.1 °C 9.5 °C 1019.9 hPa Calm     65 % 0.0 mm 0.0 W/m2 CLR
23:44 15.6 °C 9.0 °C 1019.9 hPa Calm     65 % 0.0 mm 0.0 W/m2 CLR
23:49 15.6 °C 9.0 °C 1019.9 hPa Calm     65 % 0.0 mm 0.0 W/m2 CLR
23:54 15.6 °C 9.2 °C 1019.9 hPa Calm     66 % 0.0 mm 0.0 W/m2 CLR
23:59 15.0 °C 8.7 °C 1019.9 hPa Calm     66 % 0.0 mm 0.0 W/m2 CLR
Lo Temps de Massalio
Compliments of Weather Underground - 1.25 mb